KSGU

St George Regional Airport

St George, Utah, USA
KSGU 201740Z 2018/2118 26012KT P6SM VCSH BKN040 BKN080 FM210000 03010KT P6SM FEW080
Issued Valid From Valid To
Apr-20 @ 17:40 UTC
(51 minutes ago)
Apr-20 @ 18:00 UTC
(31 minutes ago)
Apr-21 @ 18:00 UTC
(in 23 hours)
Apr-20 @ 18:00 to Apr-21 @ 00:00
KSGU 201740Z 2018/2118 26012KT P6SM VCSH BKN040 BKN080
Wind Visibility Clouds
260° at 12 knots Greater than 6 miles
  • Broken at 4,000' AGL
  • Broken at 8,000' AGL
From Apr-21 @ 00:00 to Apr-21 @ 18:00
FM210000 03010KT P6SM FEW080
Wind Visibility Clouds
30° at 10 knots Greater than 6 miles
  • Few at 8,000' AGL
KSGU 201740Z 2018/2118 26012KT P6SM VCSH BKN040 BKN080 FM210000 03010KT P6SM FEW080
Issued Apr-20 @ 17:40 UTC
(51 minutes ago)
Valid From Apr-20 @ 18:00 UTC
(31 minutes ago)
Valid To Apr-21 @ 18:00 UTC
(in 23 hours)
Apr-20 @ 18:00 - Apr-21 @ 00:00
Wind Visibility
260° at 12 knots Greater than 6 miles
Clouds
  • Broken at 4,000' AGL
  • Broken at 8,000' AGL
From Apr-21 @ 00:00 - Apr-21 @ 18:00
Wind Visibility
30° at 10 knots Greater than 6 miles
Clouds
  • Few at 8,000' AGL